Time;durP1;ratioP1;P1;durP2;ratioP2;P2;SDS_P1;SDS_P2;PMS_P1;PMS_P2;Temp;Humidity;BMP_temperature;BMP_pressure;BME280_temperature;BME280_humidity;BME280_pressure;Samples;Min_cycle;Max_cycle;Signal;HPM_P1;HPM_P2
2021/03/11 05:54:06;;;;;;;7.90;4.03;;;;;;;;;;5088348;28;20411;-84
2021/03/11 05:56:32;;;;;;;10.02;4.30;;;;;;;;;;5073656;28;20373;-82
2021/03/11 05:58:57;;;;;;;7.88;3.65;;;;;;;;;;5078015;28;20460;-82
2021/03/11 06:01:25;;;;;;;6.32;3.63;;;;;;;;;;5064300;28;20472;-83
2021/03/11 06:03:52;;;;;;;7.10;4.43;;;;;;;;;;5075960;28;20012;-83
2021/03/11 06:06:20;;;;;;;11.15;3.80;;;;;;;;;;5086270;28;20013;-84
2021/03/11 06:08:45;;;;;;;8.13;4.00;;;;;;;;;;5086232;28;19997;-84
2021/03/11 06:11:14;;;;;;;5.72;3.40;;;;;;;;;;5085620;28;20016;-83
2021/03/11 06:13:41;;;;;;;6.18;3.55;;;;;;;;;;5077246;28;20017;-84
2021/03/11 06:16:08;;;;;;;8.85;4.05;;;;;;;;;;5058453;28;20025;-84
2021/03/11 06:18:36;;;;;;;11.55;4.68;;;;;;;;;;5076789;28;20021;-84
2021/03/11 06:23:20;;;;;;;8.40;4.50;;;;;;;;;;5107207;27;20415;-81
2021/03/11 06:28:03;;;;;;;14.90;4.07;;;;;;;;;;5116952;27;20420;-83
2021/03/11 06:30:30;;;;;;;11.55;4.57;;;;;;;;;;5111431;28;20052;-84
2021/03/11 06:32:56;;;;;;;7.05;3.63;;;;;;;;;;5109747;28;20036;-84
2021/03/11 06:35:22;;;;;;;6.25;3.95;;;;;;;;;;5104934;28;20032;-83
2021/03/11 06:37:48;;;;;;;8.15;3.95;;;;;;;;;;5102419;28;20024;-83
2021/03/11 06:40:15;;;;;;;8.50;4.10;;;;;;;;;;5094986;28;20039;-83
2021/03/11 06:42:41;;;;;;;6.38;3.78;;;;;;;;;;5095745;28;20016;-84
2021/03/11 06:45:27;;;;;;;9.20;4.15;;;;;;;;;;5087405;28;20108;-82
2021/03/11 06:47:54;;;;;;;6.10;4.10;;;;;;;;;;5099117;28;20032;-83
2021/03/11 06:50:22;;;;;;;7.50;4.00;;;;;;;;;;5098700;28;20021;-83
2021/03/11 06:53:01;;;;;;;6.85;4.05;;;;;;;;;;5098416;28;20024;-83
2021/03/11 06:55:27;;;;;;;10.15;4.22;;;;;;;;;;5097305;28;20542;-81
2021/03/11 06:57:53;;;;;;;7.38;3.80;;;;;;;;;;5098880;28;20048;-80
2021/03/11 07:00:20;;;;;;;6.70;4.18;;;;;;;;;;5099706;28;20461;-82
2021/03/11 07:02:50;;;;;;;8.52;4.15;;;;;;;;;;5099304;28;20791;-82
2021/03/11 07:05:16;;;;;;;8.07;4.10;;;;;;;;;;5094032;28;20043;-82
2021/03/11 07:07:41;;;;;;;7.50;3.78;;;;;;;;;;5099329;28;20024;-82
2021/03/11 07:10:07;;;;;;;7.35;4.30;;;;;;;;;;5096005;28;20024;-82
2021/03/11 07:12:50;;;;;;;8.20;4.82;;;;;;;;;;5104951;28;20026;-83
2021/03/11 07:15:16;;;;;;;9.27;4.55;;;;;;;;;;5101333;28;20021;-83
2021/03/11 07:17:42;;;;;;;6.38;3.83;;;;;;;;;;5094023;28;20020;-83
2021/03/11 07:20:15;;;;;;;6.82;3.50;;;;;;;;;;5099637;28;20059;-83
2021/03/11 07:22:41;;;;;;;7.40;3.90;;;;;;;;;;5099344;28;20020;-83
2021/03/11 07:25:26;;;;;;;8.95;4.07;;;;;;;;;;5096326;28;20044;-83
2021/03/11 07:27:52;;;;;;;11.23;4.75;;;;;;;;;;5108164;28;20024;-82
2021/03/11 07:30:18;;;;;;;6.47;3.72;;;;;;;;;;5110310;28;20026;-83
2021/03/11 07:32:43;;;;;;;9.68;4.72;;;;;;;;;;5106258;28;20030;-83
2021/03/11 07:35:09;;;;;;;7.75;4.38;;;;;;;;;;5102353;28;20021;-83
2021/03/11 07:37:36;;;;;;;7.07;4.15;;;;;;;;;;5104857;28;20054;-83
2021/03/11 07:40:02;;;;;;;8.85;4.70;;;;;;;;;;5093788;28;20492;-83
2021/03/11 07:42:28;;;;;;;7.20;3.92;;;;;;;;;;5099598;28;20032;-83
2021/03/11 07:44:54;;;;;;;8.43;4.43;;;;;;;;;;5084247;28;20031;-83
2021/03/11 07:47:20;;;;;;;7.75;4.15;;;;;;;;;;5084919;28;20024;-83
2021/03/11 07:49:46;;;;;;;9.63;5.18;;;;;;;;;;5099124;28;20044;-83
2021/03/11 07:52:12;;;;;;;10.48;4.60;;;;;;;;;;5090597;28;20030;-83
2021/03/11 07:54:38;;;;;;;9.05;4.43;;;;;;;;;;5083209;28;20024;-83
2021/03/11 07:57:04;;;;;;;9.48;5.68;;;;;;;;;;5084477;28;20149;-83
2021/03/11 07:59:30;;;;;;;9.38;5.03;;;;;;;;;;5093527;28;20044;-83
2021/03/11 08:02:00;;;;;;;9.80;5.05;;;;;;;;;;5085050;28;20050;-82
2021/03/11 08:04:32;;;;;;;8.75;4.85;;;;;;;;;;5082436;28;20020;-82
2021/03/11 08:07:16;;;;;;;9.32;6.57;;;;;;;;;;5073833;28;20445;-82
2021/03/11 08:09:42;;;;;;;10.38;7.30;;;;;;;;;;5084229;28;20092;-82
2021/03/11 08:12:26;;;;;;;14.48;9.43;;;;;;;;;;5079267;28;20032;-83
2021/03/11 08:14:52;;;;;;;7.75;4.25;;;;;;;;;;5082413;28;20017;-81
2021/03/11 08:17:33;;;;;;;10.38;4.35;;;;;;;;;;5072063;28;20021;-85
2021/03/11 08:19:59;;;;;;;11.02;6.00;;;;;;;;;;5074142;28;20102;-81
2021/03/11 08:22:51;;;;;;;8.02;4.38;;;;;;;;;;5065850;28;20464;-81
2021/03/11 08:25:32;;;;;;;8.90;4.95;;;;;;;;;;5060043;28;20055;-81
2021/03/11 08:27:59;;;;;;;8.93;5.38;;;;;;;;;;5076412;28;20032;-81
2021/03/11 08:30:40;;;;;;;10.88;5.05;;;;;;;;;;5078642;28;20054;-81
2021/03/11 08:33:06;;;;;;;8.50;4.28;;;;;;;;;;5069083;28;20028;-81
2021/03/11 08:35:36;;;;;;;8.55;4.78;;;;;;;;;;5064924;28;20021;-81
2021/03/11 08:38:22;;;;;;;8.60;4.80;;;;;;;;;;5068121;28;20023;-80
2021/03/11 08:43:02;;;;;;;11.73;6.18;;;;;;;;;;5107450;27;20412;-80
2021/03/11 08:45:34;;;;;;;15.18;6.38;;;;;;;;;;5101226;28;20081;-80
2021/03/11 08:48:16;;;;;;;9.90;5.22;;;;;;;;;;5103764;28;20020;-80
2021/03/11 08:50:42;;;;;;;;;;;;;;;;;;5094906;28;20017;-80
2021/03/11 08:53:07;;;;;;;9.15;4.70;;;;;;;;;;5103907;28;19908;-81
2021/03/11 08:55:34;;;;;;;7.28;3.75;;;;;;;;;;5099193;28;20049;-82
2021/03/11 08:58:00;;;;;;;7.07;4.75;;;;;;;;;;5095630;28;20530;-82
2021/03/11 09:00:45;;;;;;;8.57;4.88;;;;;;;;;;5097281;28;20031;-82
2021/03/11 09:03:29;;;;;;;7.05;4.53;;;;;;;;;;5096695;28;20033;-82
2021/03/11 09:05:55;;;;;;;9.38;5.18;;;;;;;;;;5096105;28;20055;-81
2021/03/11 09:08:20;;;;;;;10.70;5.63;;;;;;;;;;5101313;28;20403;-82
2021/03/11 09:10:46;;;;;;;9.40;6.32;;;;;;;;;;5100747;28;20023;-82
2021/03/11 09:13:14;;;;;;;7.78;5.07;;;;;;;;;;5102272;28;20051;-82
2021/03/11 09:15:40;;;;;;;8.27;5.32;;;;;;;;;;5103038;28;20129;-82
2021/03/11 09:18:06;;;;;;;10.20;4.90;;;;;;;;;;5093587;28;20050;-82
2021/03/11 09:20:32;;;;;;;7.70;4.38;;;;;;;;;;5095308;28;20475;-82
2021/03/11 09:22:58;;;;;;;6.82;4.38;;;;;;;;;;5090684;28;20149;-82
2021/03/11 09:25:25;;;;;;;7.82;5.45;;;;;;;;;;5093006;28;20123;-82
2021/03/11 09:27:58;;;;;;;10.90;5.43;;;;;;;;;;5095037;28;20022;-82
2021/03/11 09:30:44;;;;;;;7.07;4.05;;;;;;;;;;5083508;28;20483;-82
2021/03/11 09:33:17;;;;;;;13.13;5.18;;;;;;;;;;5088945;28;20487;-82
2021/03/11 09:35:44;;;;;;;8.35;4.47;;;;;;;;;;5089584;28;20024;-82
2021/03/11 09:38:11;;;;;;;8.27;4.90;;;;;;;;;;5092251;28;20028;-82
2021/03/11 09:40:38;;;;;;;6.93;4.43;;;;;;;;;;5096167;28;20047;-82
2021/03/11 09:43:08;;;;;;;15.52;8.63;;;;;;;;;;5094217;28;20388;-82
2021/03/11 09:45:34;;;;;;;10.35;5.85;;;;;;;;;;5097483;28;20027;-83
2021/03/11 09:48:07;;;;;;;11.48;5.72;;;;;;;;;;5092766;28;20082;-84
2021/03/11 09:50:33;;;;;;;7.65;4.43;;;;;;;;;;5097319;28;20020;-82
2021/03/11 09:52:59;;;;;;;6.30;3.80;;;;;;;;;;5085449;28;20301;-82
2021/03/11 09:55:25;;;;;;;7.25;4.22;;;;;;;;;;5081458;28;20070;-82
2021/03/11 10:00:10;;;;;;;7.72;4.60;;;;;;;;;;5056689;28;20440;-81
2021/03/11 10:02:46;;;;;;;6.70;4.55;;;;;;;;;;5056010;28;20037;-81
2021/03/11 10:05:11;;;;;;;5.47;2.88;;;;;;;;;;5059322;28;20020;-82
2021/03/11 10:07:37;;;;;;;5.13;2.70;;;;;;;;;;5057907;28;20025;-81
2021/03/11 10:10:09;;;;;;;6.82;3.97;;;;;;;;;;5047776;28;20036;-82
2021/03/11 10:12:39;;;;;;;6.05;3.80;;;;;;;;;;5055842;28;20061;-82
2021/03/11 10:15:06;;;;;;;10.60;3.25;;;;;;;;;;5056021;28;20029;-81
2021/03/11 10:17:32;;;;;;;6.70;2.78;;;;;;;;;;5058743;28;20020;-81
2021/03/11 10:19:57;;;;;;;5.93;3.25;;;;;;;;;;5053089;28;20040;-81
2021/03/11 10:22:25;;;;;;;5.43;3.58;;;;;;;;;;5056309;28;20025;-81
2021/03/11 10:24:51;;;;;;;5.07;3.20;;;;;;;;;;5054438;28;20381;-82
2021/03/11 10:27:23;;;;;;;7.03;3.25;;;;;;;;;;5057266;28;20021;-82
2021/03/11 10:30:00;;;;;;;5.00;3.40;;;;;;;;;;5054702;28;20409;-81
2021/03/11 10:32:26;;;;;;;6.10;2.97;;;;;;;;;;5046542;28;20044;-82
2021/03/11 10:34:52;;;;;;;5.72;3.20;;;;;;;;;;5057697;28;20052;-81
2021/03/11 10:37:25;;;;;;;6.97;3.67;;;;;;;;;;5058954;28;20052;-82
2021/03/11 10:39:52;;;;;;;4.55;2.40;;;;;;;;;;5061930;28;20055;-82
2021/03/11 10:42:18;;;;;;;5.28;3.13;;;;;;;;;;5054474;28;20024;-82
2021/03/11 10:44:54;;;;;;;5.53;3.80;;;;;;;;;;5054135;28;20029;-82
2021/03/11 10:47:20;;;;;;;6.95;3.10;;;;;;;;;;5053522;28;20473;-81
2021/03/11 10:49:46;;;;;;;7.20;3.92;;;;;;;;;;5068400;28;20066;-82
2021/03/11 10:52:12;;;;;;;7.25;3.65;;;;;;;;;;5063827;28;20079;-82
2021/03/11 10:54:39;;;;;;;6.68;3.20;;;;;;;;;;5058719;28;20021;-82
2021/03/11 10:57:24;;;;;;;5.60;3.22;;;;;;;;;;5054075;28;20017;-82
2021/03/11 10:59:53;;;;;;;5.35;2.88;;;;;;;;;;5051933;28;20033;-82
2021/03/11 11:02:19;;;;;;;5.57;3.03;;;;;;;;;;5045308;28;20907;-82
2021/03/11 11:04:45;;;;;;;5.85;3.45;;;;;;;;;;5052233;28;20044;-82
2021/03/11 11:07:11;;;;;;;6.80;4.05;;;;;;;;;;5055673;28;20131;-81
2021/03/11 11:09:39;;;;;;;5.45;2.90;;;;;;;;;;5052771;28;20064;-82
2021/03/11 11:12:06;;;;;;;7.03;3.20;;;;;;;;;;5044852;28;20064;-82
2021/03/11 11:14:32;;;;;;;5.30;2.67;;;;;;;;;;5041477;28;20493;-82
2021/03/11 11:16:58;;;;;;;5.68;2.70;;;;;;;;;;5039014;28;20060;-82
2021/03/11 11:19:23;;;;;;;7.97;3.85;;;;;;;;;;5040669;28;20033;-82
2021/03/11 11:21:49;;;;;;;7.00;3.30;;;;;;;;;;5043848;28;20025;-81
2021/03/11 11:24:14;;;;;;;6.40;3.58;;;;;;;;;;5045542;28;20173;-82
2021/03/11 11:26:42;;;;;;;7.15;3.45;;;;;;;;;;5042465;28;20067;-82
2021/03/11 11:29:07;;;;;;;9.05;5.97;;;;;;;;;;5043522;28;20481;-82
2021/03/11 11:31:33;;;;;;;5.20;3.13;;;;;;;;;;5044860;28;20131;-82
2021/03/11 11:33:59;;;;;;;11.50;6.50;;;;;;;;;;5051907;28;20115;-82
2021/03/11 11:36:25;;;;;;;7.57;4.10;;;;;;;;;;5042355;28;20025;-82
2021/03/11 11:38:51;;;;;;;7.65;3.35;;;;;;;;;;5043885;28;20638;-82
2021/03/11 11:41:16;;;;;;;9.43;4.90;;;;;;;;;;5044985;28;20029;-82
2021/03/11 11:43:43;;;;;;;6.07;3.28;;;;;;;;;;5041396;28;20033;-82
2021/03/11 11:46:08;;;;;;;7.82;3.20;;;;;;;;;;5033600;28;20056;-82
2021/03/11 11:48:34;;;;;;;6.40;3.92;;;;;;;;;;5036437;28;20021;-82
2021/03/11 11:51:00;;;;;;;7.55;3.60;;;;;;;;;;5034883;28;20065;-82
2021/03/11 11:53:25;;;;;;;7.03;3.08;;;;;;;;;;5032965;28;20041;-82
2021/03/11 11:55:51;;;;;;;4.30;2.78;;;;;;;;;;5033922;28;20112;-82
2021/03/11 11:58:17;;;;;;;4.05;2.22;;;;;;;;;;5040954;28;20454;-82
2021/03/11 12:00:43;;;;;;;4.47;2.35;;;;;;;;;;5025698;23;20049;-86
2021/03/11 12:03:09;;;;;;;3.63;2.13;;;;;;;;;;5015907;28;20631;-87
2021/03/11 12:05:34;;;;;;;6.32;2.20;;;;;;;;;;5023996;28;20033;-86
2021/03/11 12:08:00;;;;;;;3.53;2.38;;;;;;;;;;5009599;28;20100;-86
2021/03/11 12:10:26;;;;;;;3.13;1.80;;;;;;;;;;5031245;28;20485;-86
2021/03/11 12:12:52;;;;;;;4.10;1.85;;;;;;;;;;5024554;28;20025;-86
2021/03/11 12:17:36;;;;;;;3.20;1.75;;;;;;;;;;5011377;28;20354;-77
2021/03/11 12:20:03;;;;;;;5.00;1.92;;;;;;;;;;5012163;28;20030;-77
2021/03/11 12:22:29;;;;;;;2.97;1.55;;;;;;;;;;5001395;28;20018;-77
2021/03/11 12:27:13;;;;;;;2.92;1.60;;;;;;;;;;5067033;28;20377;-77
2021/03/11 12:29:39;;;;;;;3.45;1.98;;;;;;;;;;5050135;28;20426;-76
2021/03/11 12:32:04;;;;;;;2.97;1.88;;;;;;;;;;5049964;28;20048;-78
2021/03/11 12:34:30;;;;;;;3.30;1.58;;;;;;;;;;5052332;28;20025;-76
2021/03/11 12:36:56;;;;;;;3.33;1.83;;;;;;;;;;5051663;28;20064;-75
2021/03/11 12:39:21;;;;;;;3.22;1.80;;;;;;;;;;5051252;28;20040;-77
2021/03/11 12:41:47;;;;;;;3.55;1.65;;;;;;;;;;5050420;28;20029;-77
2021/03/11 12:44:13;;;;;;;6.65;2.72;;;;;;;;;;5046132;28;20469;-75
2021/03/11 12:46:38;;;;;;;5.63;3.20;;;;;;;;;;5044670;28;20017;-75
2021/03/11 12:49:04;;;;;;;5.55;2.35;;;;;;;;;;5042701;28;20025;-77
2021/03/11 12:51:30;;;;;;;3.45;2.28;;;;;;;;;;5044287;28;20043;-73
2021/03/11 12:53:55;;;;;;;8.10;4.72;;;;;;;;;;5047171;28;20033;-76
2021/03/11 12:56:23;;;;;;;9.75;6.10;;;;;;;;;;5048718;28;20389;-75
2021/03/11 12:58:49;;;;;;;19.20;12.68;;;;;;;;;;5043933;28;20029;-75
2021/03/11 13:01:15;;;;;;;21.40;16.38;;;;;;;;;;5043660;28;20078;-76
2021/03/11 13:03:41;;;;;;;4.50;3.13;;;;;;;;;;5043266;28;20086;-76
2021/03/11 13:06:06;;;;;;;4.05;2.08;;;;;;;;;;5043146;28;20663;-76
2021/03/11 13:08:32;;;;;;;5.03;2.67;;;;;;;;;;5044476;28;20044;-75
2021/03/11 13:10:58;;;;;;;3.85;1.85;;;;;;;;;;5042846;28;20461;-77
2021/03/11 13:13:24;;;;;;;3.90;1.83;;;;;;;;;;5043237;28;20024;-76
2021/03/11 13:15:51;;;;;;;3.47;1.70;;;;;;;;;;5043540;28;20075;-76
2021/03/11 13:18:16;;;;;;;3.53;1.85;;;;;;;;;;5043738;28;20512;-76
2021/03/11 13:20:42;;;;;;;4.65;2.38;;;;;;;;;;5042603;28;20025;-76
2021/03/11 13:23:08;;;;;;;3.42;1.92;;;;;;;;;;5043217;28;20405;-76
2021/03/11 13:25:33;;;;;;;4.43;2.30;;;;;;;;;;5044358;28;20048;-77
2021/03/11 13:27:59;;;;;;;3.30;2.05;;;;;;;;;;5048843;28;20082;-77
2021/03/11 13:30:25;;;;;;;3.17;1.83;;;;;;;;;;5043716;28;20021;-76
2021/03/11 13:32:50;;;;;;;2.95;1.80;;;;;;;;;;5041409;28;20726;-74
2021/03/11 13:35:20;;;;;;;3.30;1.77;;;;;;;;;;5041644;28;20156;-75
2021/03/11 13:37:46;;;;;;;4.05;1.98;;;;;;;;;;5036231;28;20040;-76
2021/03/11 13:40:12;;;;;;;3.67;2.35;;;;;;;;;;5032743;28;20021;-77
2021/03/11 13:42:37;;;;;;;3.60;2.03;;;;;;;;;;5038327;28;20111;-77
2021/03/11 13:45:04;;;;;;;4.45;1.67;;;;;;;;;;5039327;28;20111;-77
2021/03/11 13:47:29;;;;;;;4.07;2.58;;;;;;;;;;5037204;28;20076;-77
2021/03/11 13:49:55;;;;;;;2.83;1.60;;;;;;;;;;5035877;28;20021;-76
2021/03/11 13:52:21;;;;;;;3.58;1.50;;;;;;;;;;5036784;28;20395;-76
2021/03/11 13:54:46;;;;;;;8.50;2.30;;;;;;;;;;5034653;28;20021;-74
2021/03/11 13:57:12;;;;;;;5.05;2.35;;;;;;;;;;5035216;28;20021;-77
2021/03/11 13:59:38;;;;;;;3.90;2.65;;;;;;;;;;5036167;28;20029;-77
2021/03/11 14:02:03;;;;;;;3.10;1.70;;;;;;;;;;5035750;28;20116;-77
2021/03/11 14:04:29;;;;;;;3.47;1.83;;;;;;;;;;5035387;28;20028;-76
2021/03/11 14:06:54;;;;;;;4.40;2.40;;;;;;;;;;5034570;28;20021;-76
2021/03/11 14:09:20;;;;;;;7.10;3.33;;;;;;;;;;5035044;28;20104;-75
2021/03/11 14:11:47;;;;;;;9.10;5.30;;;;;;;;;;5035645;28;20108;-77
2021/03/11 14:14:14;;;;;;;7.75;3.83;;;;;;;;;;5031357;28;20405;-74
2021/03/11 14:16:41;;;;;;;7.45;3.15;;;;;;;;;;5034495;28;20057;-80
2021/03/11 14:19:06;;;;;;;5.47;2.60;;;;;;;;;;5034615;28;20034;-77
2021/03/11 14:21:32;;;;;;;3.88;2.15;;;;;;;;;;5033885;28;20378;-76
2021/03/11 14:23:58;;;;;;;6.78;2.95;;;;;;;;;;5040210;28;20473;-76
2021/03/11 14:26:23;;;;;;;4.03;2.28;;;;;;;;;;5038092;28;20542;-76
2021/03/11 14:28:49;;;;;;;5.35;2.33;;;;;;;;;;5040157;28;20132;-77
2021/03/11 14:31:15;;;;;;;2.95;1.50;;;;;;;;;;5042408;28;20035;-77
2021/03/11 14:33:40;;;;;;;5.25;1.58;;;;;;;;;;5041823;28;20017;-77
2021/03/11 14:36:06;;;;;;;3.97;2.10;;;;;;;;;;5040915;28;20041;-77
2021/03/11 14:38:32;;;;;;;4.20;1.50;;;;;;;;;;5044390;28;20029;-77
2021/03/11 14:40:58;;;;;;;4.30;2.03;;;;;;;;;;5035158;28;20021;-75
2021/03/11 14:43:23;;;;;;;3.10;1.52;;;;;;;;;;5034972;28;20029;-77
2021/03/11 14:45:49;;;;;;;2.70;1.20;;;;;;;;;;5033044;28;20382;-75
2021/03/11 14:48:15;;;;;;;2.92;1.40;;;;;;;;;;5033608;28;20032;-77
2021/03/11 14:50:41;;;;;;;3.40;1.30;;;;;;;;;;5029565;28;20013;-73
2021/03/11 14:55:27;;;;;;;4.15;1.50;;;;;;;;;;5104666;27;20355;-77
2021/03/11 14:57:53;;;;;;;4.40;1.90;;;;;;;;;;5090884;28;20028;-74
2021/03/11 15:00:18;;;;;;;5.15;1.70;;;;;;;;;;5091309;28;20024;-75
2021/03/11 15:02:44;;;;;;;2.50;1.30;;;;;;;;;;5091196;28;20748;-76
2021/03/11 15:05:10;;;;;;;6.15;2.45;;;;;;;;;;5090818;28;20055;-76
2021/03/11 15:07:36;;;;;;;7.43;2.55;;;;;;;;;;5091729;28;20468;-75
2021/03/11 15:10:04;;;;;;;3.85;2.08;;;;;;;;;;5090430;28;20020;-80
2021/03/11 15:12:30;;;;;;;8.85;1.88;;;;;;;;;;5086050;28;20074;-76
2021/03/11 15:14:55;;;;;;;4.18;2.22;;;;;;;;;;5083747;28;20024;-75
2021/03/11 15:19:40;;;;;;;3.03;1.33;;;;;;;;;;5065727;28;20430;-77
2021/03/11 15:22:05;;;;;;;2.83;1.40;;;;;;;;;;5051554;28;20033;-76
2021/03/11 15:24:31;;;;;;;4.95;2.05;;;;;;;;;;5050609;28;20037;-76
2021/03/11 15:26:57;;;;;;;6.32;2.35;;;;;;;;;;5048474;28;20094;-76
2021/03/11 15:29:22;;;;;;;5.78;1.73;;;;;;;;;;5052480;28;20051;-77
2021/03/11 15:31:48;;;;;;;4.97;2.00;;;;;;;;;;5053374;28;20021;-77
2021/03/11 15:34:14;;;;;;;5.65;1.55;;;;;;;;;;5058465;28;20021;-74
2021/03/11 15:36:40;;;;;;;4.07;2.33;;;;;;;;;;5043663;28;20028;-76
2021/03/11 15:39:06;;;;;;;4.05;1.50;;;;;;;;;;5046864;28;20112;-76
2021/03/11 15:41:32;;;;;;;6.72;2.05;;;;;;;;;;5047180;28;20022;-76
2021/03/11 15:43:57;;;;;;;2.60;1.17;;;;;;;;;;5050604;28;20473;-77
2021/03/11 15:46:23;;;;;;;5.28;2.00;;;;;;;;;;5047740;28;20033;-78
2021/03/11 15:48:49;;;;;;;5.32;2.33;;;;;;;;;;5048657;28;20029;-77
2021/03/11 15:51:14;;;;;;;2.80;1.20;;;;;;;;;;5048644;28;20037;-76
2021/03/11 15:53:42;;;;;;;4.00;1.65;;;;;;;;;;5052032;28;20112;-76
2021/03/11 15:56:08;;;;;;;8.02;1.92;;;;;;;;;;5061174;28;20028;-78
2021/03/11 15:58:33;;;;;;;6.57;2.20;;;;;;;;;;5064570;28;20036;-77
2021/03/11 16:00:59;;;;;;;3.83;1.48;;;;;;;;;;5062563;28;20027;-79
2021/03/11 16:03:25;;;;;;;3.22;1.85;;;;;;;;;;5060618;28;20107;-80
2021/03/11 16:05:51;;;;;;;6.78;1.60;;;;;;;;;;5050858;28;20500;-78
2021/03/11 16:08:17;;;;;;;5.57;1.40;;;;;;;;;;5049898;28;20037;-78
2021/03/11 16:10:43;;;;;;;4.38;1.60;;;;;;;;;;5051442;28;20033;-78
2021/03/11 16:13:09;;;;;;;4.07;1.77;;;;;;;;;;5046192;28;20083;-78
2021/03/11 16:15:37;;;;;;;3.63;1.42;;;;;;;;;;5043223;28;21253;-80
2021/03/11 16:18:03;;;;;;;6.90;1.75;;;;;;;;;;5045776;28;20035;-80
2021/03/11 16:20:29;;;;;;;7.20;1.30;;;;;;;;;;5047244;28;20025;-79
2021/03/11 16:22:55;;;;;;;3.50;1.10;;;;;;;;;;5045721;28;20055;-80
2021/03/11 16:25:20;;;;;;;6.22;1.50;;;;;;;;;;5049754;28;20377;-80
2021/03/11 16:27:46;;;;;;;4.45;1.30;;;;;;;;;;5051448;28;20032;-79
2021/03/11 16:30:12;;;;;;;4.75;1.08;;;;;;;;;;5041397;28;20026;-79
2021/03/11 16:32:38;;;;;;;3.75;1.52;;;;;;;;;;5036981;28;20112;-79
2021/03/11 16:35:04;;;;;;;7.00;1.67;;;;;;;;;;5034274;28;20052;-80
2021/03/11 16:37:30;;;;;;;3.03;1.50;;;;;;;;;;5035519;28;20045;-78
2021/03/11 16:39:56;;;;;;;4.03;1.27;;;;;;;;;;5030629;28;20025;-79
2021/03/11 16:42:22;;;;;;;4.20;1.30;;;;;;;;;;5035355;28;20030;-78
2021/03/11 16:44:48;;;;;;;4.25;1.33;;;;;;;;;;5037493;28;20029;-77
2021/03/11 16:47:14;;;;;;;7.50;2.90;;;;;;;;;;5038295;28;20026;-79
2021/03/11 16:49:39;;;;;;;7.47;2.67;;;;;;;;;;5048458;28;20028;-79
2021/03/11 16:52:05;;;;;;;10.98;7.15;;;;;;;;;;5034223;28;20029;-78
2021/03/11 16:54:31;;;;;;;7.65;4.47;;;;;;;;;;5040088;28;20572;-78
2021/03/11 16:56:56;;;;;;;10.38;6.00;;;;;;;;;;5031748;28;20029;-78
2021/03/11 16:59:22;;;;;;;7.78;5.03;;;;;;;;;;5027203;28;20245;-78
2021/03/11 17:01:48;;;;;;;6.75;2.40;;;;;;;;;;5029722;28;20045;-80
2021/03/11 17:06:31;;;;;;;7.47;2.10;;;;;;;;;;5059337;28;20373;-77
2021/03/11 17:08:59;;;;;;;5.60;2.53;;;;;;;;;;5060274;28;20039;-78
2021/03/11 17:11:25;;;;;;;5.20;2.20;;;;;;;;;;5048904;28;20412;-78
2021/03/11 17:13:51;;;;;;;7.47;2.65;;;;;;;;;;5051462;28;20036;-77
2021/03/11 17:16:16;;;;;;;7.25;3.47;;;;;;;;;;5044847;28;20489;-76
2021/03/11 17:18:42;;;;;;;13.85;7.50;;;;;;;;;;5048462;28;20090;-78
2021/03/11 17:21:08;;;;;;;23.02;15.38;;;;;;;;;;5050549;28;20540;-76
2021/03/11 17:23:34;;;;;;;24.55;13.38;;;;;;;;;;5050335;28;20043;-79
2021/03/11 17:25:59;;;;;;;25.10;16.65;;;;;;;;;;5044615;28;20028;-78
2021/03/11 17:28:25;;;;;;;8.63;7.18;;;;;;;;;;5045621;28;20040;-78
2021/03/11 17:30:51;;;;;;;7.35;3.40;;;;;;;;;;5040979;28;20025;-78
2021/03/11 17:33:17;;;;;;;5.28;2.38;;;;;;;;;;5043345;28;20025;-78
2021/03/11 17:35:42;;;;;;;4.47;1.80;;;;;;;;;;5045678;28;20040;-77
2021/03/11 17:38:08;;;;;;;5.68;1.90;;;;;;;;;;5045946;28;20040;-78
2021/03/11 17:40:34;;;;;;;9.93;1.92;;;;;;;;;;5045345;28;20029;-78
2021/03/11 17:42:59;;;;;;;8.15;3.15;;;;;;;;;;5045419;28;20104;-78
2021/03/11 17:45:25;;;;;;;10.52;2.50;;;;;;;;;;5042505;28;20029;-78
2021/03/11 17:47:51;;;;;;;11.45;3.03;;;;;;;;;;5046188;28;20033;-78
2021/03/11 17:50:17;;;;;;;14.77;6.75;;;;;;;;;;5049503;28;20031;-78
2021/03/11 17:52:42;;;;;;;6.57;2.05;;;;;;;;;;5054587;28;20100;-77
2021/03/11 17:55:09;;;;;;;6.18;1.90;;;;;;;;;;5055490;28;20108;-78
2021/03/11 17:57:35;;;;;;;8.95;1.90;;;;;;;;;;5053229;28;20037;-77
2021/03/11 18:00:01;;;;;;;6.85;1.70;;;;;;;;;;5047980;28;20032;-81
2021/03/11 18:02:26;;;;;;;6.70;2.47;;;;;;;;;;5059056;22;20049;-83
2021/03/11 18:04:53;;;;;;;5.47;2.25;;;;;;;;;;5041834;28;20033;-83
2021/03/11 18:07:19;;;;;;;7.35;2.55;;;;;;;;;;5040879;28;20099;-83
2021/03/11 18:09:45;;;;;;;11.50;3.92;;;;;;;;;;5046099;28;20021;-84
2021/03/11 18:12:11;;;;;;;5.53;2.25;;;;;;;;;;5059920;28;20025;-82
2021/03/11 18:14:37;;;;;;;5.97;2.13;;;;;;;;;;5057981;28;20102;-82
2021/03/11 18:17:02;;;;;;;4.10;2.65;;;;;;;;;;5049204;28;20040;-82
2021/03/11 18:19:28;;;;;;;8.57;2.75;;;;;;;;;;5048913;28;20037;-82
2021/03/11 18:21:54;;;;;;;10.20;3.60;;;;;;;;;;5049351;28;20035;-83
2021/03/11 18:24:21;;;;;;;15.68;6.20;;;;;;;;;;5047411;28;20028;-84
2021/03/11 18:26:48;;;;;;;8.68;3.22;;;;;;;;;;5047904;28;20037;-82
2021/03/11 18:29:14;;;;;;;13.38;5.22;;;;;;;;;;5045200;28;20491;-81
2021/03/11 18:31:40;;;;;;;13.48;3.83;;;;;;;;;;5048078;28;20061;-82
2021/03/11 18:34:06;;;;;;;10.57;3.95;;;;;;;;;;5046882;28;20029;-82
2021/03/11 18:36:31;;;;;;;8.77;3.00;;;;;;;;;;5045925;28;20029;-80
2021/03/11 18:38:57;;;;;;;9.25;2.42;;;;;;;;;;5043747;28;19916;-81
2021/03/11 18:41:23;;;;;;;5.43;2.40;;;;;;;;;;5043585;28;20032;-81
2021/03/11 18:43:49;;;;;;;5.63;1.88;;;;;;;;;;5045565;28;20605;-81
2021/03/11 18:46:14;;;;;;;8.50;1.73;;;;;;;;;;5044145;28;20022;-81
2021/03/11 18:50:59;;;;;;;5.80;1.60;;;;;;;;;;5094264;27;20381;-81
2021/03/11 18:53:25;;;;;;;6.65;2.22;;;;;;;;;;5090017;28;20024;-83
2021/03/11 18:55:50;;;;;;;9.50;3.05;;;;;;;;;;5090427;28;21635;-83
2021/03/11 18:58:16;;;;;;;9.20;3.30;;;;;;;;;;5098289;28;20024;-83
2021/03/11 19:00:42;;;;;;;7.80;2.55;;;;;;;;;;5094078;28;20361;-82
2021/03/11 19:03:09;;;;;;;6.97;3.33;;;;;;;;;;5092442;28;20024;-83
2021/03/11 19:05:35;;;;;;;10.75;3.55;;;;;;;;;;5095474;28;20034;-83
2021/03/11 19:08:01;;;;;;;6.85;3.88;;;;;;;;;;5087046;28;20016;-83
2021/03/11 19:10:27;;;;;;;8.93;4.35;;;;;;;;;;5091989;28;20023;-83
2021/03/11 19:12:53;;;;;;;8.13;2.30;;;;;;;;;;5094108;28;20051;-83
2021/03/11 19:15:19;;;;;;;6.88;2.60;;;;;;;;;;5097338;28;20020;-83
2021/03/11 19:17:45;;;;;;;8.07;1.85;;;;;;;;;;5094678;28;20024;-83
2021/03/11 19:20:14;;;;;;;7.03;2.72;;;;;;;;;;5094631;28;20019;-83
2021/03/11 19:22:40;;;;;;;5.45;1.75;;;;;;;;;;5097981;28;20470;-83
2021/03/11 19:25:06;;;;;;;9.52;4.82;;;;;;;;;;5093559;28;20111;-83
2021/03/11 19:27:32;;;;;;;10.77;5.45;;;;;;;;;;5097334;28;20426;-83
2021/03/11 19:29:57;;;;;;;15.93;8.07;;;;;;;;;;5096760;28;20030;-83
2021/03/11 19:32:23;;;;;;;14.98;7.05;;;;;;;;;;5094302;28;20024;-83
2021/03/11 19:34:49;;;;;;;12.10;6.65;;;;;;;;;;5091784;28;20082;-83
2021/03/11 19:37:14;;;;;;;20.52;8.90;;;;;;;;;;5090996;28;20464;-83
2021/03/11 19:39:40;;;;;;;9.98;4.38;;;;;;;;;;5087782;28;20015;-83
2021/03/11 19:42:31;;;;;;;7.90;3.17;;;;;;;;;;5097632;28;20024;-84
2021/03/11 19:44:57;;;;;;;4.87;2.93;;;;;;;;;;5093130;28;20103;-84
2021/03/11 19:47:23;;;;;;;6.30;2.25;;;;;;;;;;5086785;28;20392;-83
2021/03/11 19:49:48;;;;;;;4.82;2.58;;;;;;;;;;5088277;28;20028;-83
2021/03/11 19:52:51;;;;;;;5.32;2.38;;;;;;;;;;5095164;28;20035;-83
2021/03/11 20:01:55;;;;;;;11.80;3.38;;;;;;;;;;5047358;28;20071;-82
2021/03/11 20:07:26;;;;;;;10.57;4.90;;;;;;;;;;5013303;28;20033;-83
2021/03/11 20:09:52;;;;;;;11.57;5.00;;;;;;;;;;5039804;28;20131;-81
2021/03/11 20:14:35;;;;;;;14.95;6.93;;;;;;;;;;5108005;27;20363;-83
2021/03/11 20:17:01;;;;;;;9.60;4.57;;;;;;;;;;5100198;28;20073;-83
2021/03/11 20:19:27;;;;;;;10.90;4.07;;;;;;;;;;5101525;28;20028;-83
2021/03/11 20:21:53;;;;;;;6.95;2.83;;;;;;;;;;5098807;28;20750;-84
2021/03/11 20:24:18;;;;;;;6.60;3.13;;;;;;;;;;5102982;28;20085;-83
2021/03/11 20:26:44;;;;;;;9.52;3.13;;;;;;;;;;5097579;28;20034;-84
2021/03/11 20:29:10;;;;;;;8.88;3.50;;;;;;;;;;5099937;28;20023;-84
2021/03/11 20:31:36;;;;;;;7.90;2.88;;;;;;;;;;5100645;28;20066;-83
2021/03/11 20:34:02;;;;;;;14.18;4.68;;;;;;;;;;5107805;27;20375;-83
2021/03/11 20:38:46;;;;;;;9.13;2.85;;;;;;;;;;5062675;28;20362;-83
2021/03/11 20:41:11;;;;;;;5.03;2.20;;;;;;;;;;5061121;28;20506;-83
2021/03/11 20:43:37;;;;;;;11.50;2.50;;;;;;;;;;5060614;28;20051;-84
2021/03/11 20:46:03;;;;;;;7.85;2.83;;;;;;;;;;5051774;28;20033;-83
2021/03/11 20:48:28;;;;;;;6.20;2.95;;;;;;;;;;5048866;28;20396;-83
2021/03/11 20:50:54;;;;;;;10.93;3.63;;;;;;;;;;5048869;28;20104;-83
2021/03/11 20:53:20;;;;;;;10.23;4.15;;;;;;;;;;5040621;28;20040;-84
2021/03/11 20:55:45;;;;;;;9.15;3.90;;;;;;;;;;5058887;28;20040;-83
2021/03/11 20:58:11;;;;;;;6.20;2.50;;;;;;;;;;5054214;28;20021;-83
2021/03/11 21:00:37;;;;;;;6.50;2.75;;;;;;;;;;5061088;28;20021;-83
2021/03/11 21:03:03;;;;;;;5.65;1.73;;;;;;;;;;5060032;28;20027;-84
2021/03/11 21:05:29;;;;;;;5.35;2.25;;;;;;;;;;5061294;28;20033;-84
2021/03/11 21:07:55;;;;;;;6.50;2.20;;;;;;;;;;5057915;28;20048;-83
2021/03/11 21:10:21;;;;;;;5.00;1.45;;;;;;;;;;5056597;28;20021;-83